sensor_id;sensor_type;location;lat;lon;timestamp;pressure;altitude;pressure_sealevel;temperature;humidity
2339;BME280;1180;51.438;6.978;2022-11-22T00:00:18;97929.84;;;10.07;85.85
2339;BME280;1180;51.438;6.978;2022-11-22T00:02:44;97921.03;;;9.92;85.65
2339;BME280;1180;51.438;6.978;2022-11-22T00:05:10;97926.16;;;9.92;86.30
2339;BME280;1180;51.438;6.978;2022-11-22T00:07:36;97925.50;;;9.90;86.13
2339;BME280;1180;51.438;6.978;2022-11-22T00:10:07;97930.06;;;9.96;85.42
2339;BME280;1180;51.438;6.978;2022-11-22T00:12:33;97911.69;;;10.01;85.42
2339;BME280;1180;51.438;6.978;2022-11-22T00:14:58;97917.47;;;10.03;85.09
2339;BME280;1180;51.438;6.978;2022-11-22T00:17:24;97920.09;;;9.93;85.54
2339;BME280;1180;51.438;6.978;2022-11-22T00:19:49;97920.03;;;9.85;86.06
2339;BME280;1180;51.438;6.978;2022-11-22T00:22:14;97919.84;;;9.86;86.41
2339;BME280;1180;51.438;6.978;2022-11-22T00:24:40;97915.56;;;9.87;86.38
2339;BME280;1180;51.438;6.978;2022-11-22T00:27:05;97922.41;;;9.86;86.38
2339;BME280;1180;51.438;6.978;2022-11-22T00:29:30;97909.78;;;10.03;86.40
2339;BME280;1180;51.438;6.978;2022-11-22T00:31:56;97916.06;;;9.90;86.77
2339;BME280;1180;51.438;6.978;2022-11-22T00:34:21;97923.59;;;9.92;86.92
2339;BME280;1180;51.438;6.978;2022-11-22T00:36:46;97911.09;;;9.89;87.73
2339;BME280;1180;51.438;6.978;2022-11-22T00:39:11;97913.72;;;9.79;87.75
2339;BME280;1180;51.438;6.978;2022-11-22T00:41:37;97898.09;;;9.72;88.18
2339;BME280;1180;51.438;6.978;2022-11-22T00:44:02;97895.25;;;9.75;88.91
2339;BME280;1180;51.438;6.978;2022-11-22T00:46:27;97896.00;;;9.86;88.58
2339;BME280;1180;51.438;6.978;2022-11-22T00:48:53;97903.69;;;9.86;88.25
2339;BME280;1180;51.438;6.978;2022-11-22T00:51:18;97903.91;;;9.92;88.71
2339;BME280;1180;51.438;6.978;2022-11-22T00:53:43;97903.34;;;9.99;88.43
2339;BME280;1180;51.438;6.978;2022-11-22T00:56:09;97905.69;;;10.10;88.01
2339;BME280;1180;51.438;6.978;2022-11-22T00:58:34;97912.34;;;10.03;87.85
2339;BME280;1180;51.438;6.978;2022-11-22T01:00:59;97907.16;;;9.94;88.65
2339;BME280;1180;51.438;6.978;2022-11-22T01:03:25;97910.56;;;9.85;89.30
2339;BME280;1180;51.438;6.978;2022-11-22T01:05:50;97912.84;;;9.88;89.48
2339;BME280;1180;51.438;6.978;2022-11-22T01:08:16;97926.97;;;9.92;89.92
2339;BME280;1180;51.438;6.978;2022-11-22T01:10:41;97917.97;;;9.88;90.25
2339;BME280;1180;51.438;6.978;2022-11-22T01:13:06;97922.59;;;10.03;89.91
2339;BME280;1180;51.438;6.978;2022-11-22T01:15:32;97937.69;;;10.06;90.09
2339;BME280;1180;51.438;6.978;2022-11-22T01:17:57;97926.97;;;10.10;89.88
2339;BME280;1180;51.438;6.978;2022-11-22T01:20:23;97938.63;;;10.05;89.85
2339;BME280;1180;51.438;6.978;2022-11-22T01:22:49;97924.13;;;9.95;90.44
2339;BME280;1180;51.438;6.978;2022-11-22T01:25:14;97930.88;;;9.96;90.72
2339;BME280;1180;51.438;6.978;2022-11-22T01:27:39;97934.75;;;10.01;91.15
2339;BME280;1180;51.438;6.978;2022-11-22T01:30:05;97935.84;;;10.16;90.65
2339;BME280;1180;51.438;6.978;2022-11-22T01:32:31;97940.03;;;10.17;90.22
2339;BME280;1180;51.438;6.978;2022-11-22T01:34:56;97935.72;;;10.18;89.67
2339;BME280;1180;51.438;6.978;2022-11-22T01:37:22;97945.38;;;10.24;89.96
2339;BME280;1180;51.438;6.978;2022-11-22T01:39:47;97943.34;;;10.28;89.73
2339;BME280;1180;51.438;6.978;2022-11-22T01:42:12;97948.06;;;10.22;89.49
2339;BME280;1180;51.438;6.978;2022-11-22T01:44:38;97934.84;;;10.27;89.86
2339;BME280;1180;51.438;6.978;2022-11-22T01:47:19;97942.44;;;10.19;89.46
2339;BME280;1180;51.438;6.978;2022-11-22T01:49:51;97931.84;;;10.32;89.33
2339;BME280;1180;51.438;6.978;2022-11-22T01:52:20;97924.59;;;10.27;89.08
2339;BME280;1180;51.438;6.978;2022-11-22T01:54:57;97932.88;;;10.21;89.42
2339;BME280;1180;51.438;6.978;2022-11-22T01:57:28;97927.56;;;10.22;89.80
2339;BME280;1180;51.438;6.978;2022-11-22T02:00:07;97932.69;;;10.22;89.56
2339;BME280;1180;51.438;6.978;2022-11-22T02:02:34;97947.94;;;10.24;89.89
2339;BME280;1180;51.438;6.978;2022-11-22T02:05:04;97950.34;;;10.25;89.83
2339;BME280;1180;51.438;6.978;2022-11-22T02:07:38;97963.84;;;10.28;89.96
2339;BME280;1180;51.438;6.978;2022-11-22T02:10:06;97973.22;;;10.37;89.62
2339;BME280;1180;51.438;6.978;2022-11-22T02:12:33;97960.53;;;10.35;89.32
2339;BME280;1180;51.438;6.978;2022-11-22T02:14:59;97971.19;;;10.40;89.13
2339;BME280;1180;51.438;6.978;2022-11-22T02:17:25;97966.88;;;10.41;89.14
2339;BME280;1180;51.438;6.978;2022-11-22T02:19:51;97977.34;;;10.48;88.99
2339;BME280;1180;51.438;6.978;2022-11-22T02:25:04;97972.22;;;10.48;89.33
2339;BME280;1180;51.438;6.978;2022-11-22T02:27:31;97971.13;;;10.50;88.77
2339;BME280;1180;51.438;6.978;2022-11-22T02:29:56;97981.66;;;10.47;89.05
2339;BME280;1180;51.438;6.978;2022-11-22T02:32:22;97971.84;;;10.43;89.34
2339;BME280;1180;51.438;6.978;2022-11-22T02:34:48;97972.38;;;10.46;89.21
2339;BME280;1180;51.438;6.978;2022-11-22T02:37:22;97972.38;;;10.46;88.56
2339;BME280;1180;51.438;6.978;2022-11-22T02:39:51;97976.44;;;10.39;88.38
2339;BME280;1180;51.438;6.978;2022-11-22T02:42:20;97975.13;;;10.35;88.74
2339;BME280;1180;51.438;6.978;2022-11-22T02:44:46;97992.91;;;10.36;88.83
2339;BME280;1180;51.438;6.978;2022-11-22T02:47:11;97991.69;;;10.40;88.67
2339;BME280;1180;51.438;6.978;2022-11-22T02:49:36;97994.78;;;10.44;88.49
2339;BME280;1180;51.438;6.978;2022-11-22T02:52:02;97999.38;;;10.40;88.10
2339;BME280;1180;51.438;6.978;2022-11-22T02:54:27;98011.13;;;10.43;88.27
2339;BME280;1180;51.438;6.978;2022-11-22T02:56:52;98005.59;;;10.38;88.50
2339;BME280;1180;51.438;6.978;2022-11-22T02:59:17;98010.91;;;10.26;89.73
2339;BME280;1180;51.438;6.978;2022-11-22T03:01:44;98014.38;;;10.35;89.62
2339;BME280;1180;51.438;6.978;2022-11-22T03:04:10;98017.72;;;10.46;89.06
2339;BME280;1180;51.438;6.978;2022-11-22T03:06:52;98016.31;;;10.51;89.05
2339;BME280;1180;51.438;6.978;2022-11-22T03:09:18;98018.44;;;10.56;88.56
2339;BME280;1180;51.438;6.978;2022-11-22T03:11:43;98010.59;;;10.58;88.16
2339;BME280;1180;51.438;6.978;2022-11-22T03:14:09;98010.91;;;10.54;87.92
2339;BME280;1180;51.438;6.978;2022-11-22T03:16:34;98009.28;;;10.53;87.54
2339;BME280;1180;51.438;6.978;2022-11-22T03:18:59;98016.03;;;10.54;87.42
2339;BME280;1180;51.438;6.978;2022-11-22T03:21:25;98020.00;;;10.49;87.96
2339;BME280;1180;51.438;6.978;2022-11-22T03:23:50;98012.59;;;10.46;87.58
2339;BME280;1180;51.438;6.978;2022-11-22T03:26:15;98016.38;;;10.42;88.07
2339;BME280;1180;51.438;6.978;2022-11-22T03:28:41;98010.16;;;10.44;87.86
2339;BME280;1180;51.438;6.978;2022-11-22T03:31:06;98021.38;;;10.43;87.64
2339;BME280;1180;51.438;6.978;2022-11-22T03:33:33;98013.97;;;10.40;87.98
2339;BME280;1180;51.438;6.978;2022-11-22T03:35:58;98035.81;;;10.34;87.80
2339;BME280;1180;51.438;6.978;2022-11-22T03:38:24;98037.06;;;10.40;87.86
2339;BME280;1180;51.438;6.978;2022-11-22T03:40:49;98044.19;;;10.36;87.55
2339;BME280;1180;51.438;6.978;2022-11-22T03:43:14;98036.34;;;10.38;87.70
2339;BME280;1180;51.438;6.978;2022-11-22T03:45:44;98037.59;;;10.34;87.31
2339;BME280;1180;51.438;6.978;2022-11-22T03:48:10;98040.25;;;10.14;88.28
2339;BME280;1180;51.438;6.978;2022-11-22T03:50:35;98046.41;;;10.21;88.13
2339;BME280;1180;51.438;6.978;2022-11-22T03:53:01;98046.53;;;10.30;88.23
2339;BME280;1180;51.438;6.978;2022-11-22T03:55:26;98047.84;;;10.34;87.73
2339;BME280;1180;51.438;6.978;2022-11-22T03:57:51;98050.03;;;10.29;87.34
2339;BME280;1180;51.438;6.978;2022-11-22T04:00:17;98064.47;;;10.30;87.32
2339;BME280;1180;51.438;6.978;2022-11-22T04:02:43;98067.88;;;10.20;87.60
2339;BME280;1180;51.438;6.978;2022-11-22T04:05:08;98071.00;;;10.14;88.07
2339;BME280;1180;51.438;6.978;2022-11-22T04:07:34;98059.97;;;10.14;87.44
2339;BME280;1180;51.438;6.978;2022-11-22T04:09:59;98070.06;;;10.15;87.91
2339;BME280;1180;51.438;6.978;2022-11-22T04:12:24;98069.13;;;10.16;87.32
2339;BME280;1180;51.438;6.978;2022-11-22T04:14:50;98071.09;;;10.22;87.47
2339;BME280;1180;51.438;6.978;2022-11-22T04:17:40;98075.72;;;10.19;87.32
2339;BME280;1180;51.438;6.978;2022-11-22T04:25:29;98070.34;;;10.12;87.06
2339;BME280;1180;51.438;6.978;2022-11-22T04:27:55;98069.56;;;10.11;87.23
2339;BME280;1180;51.438;6.978;2022-11-22T04:30:22;98069.16;;;10.06;87.53
2339;BME280;1180;51.438;6.978;2022-11-22T04:33:09;98075.75;;;10.09;87.41
2339;BME280;1180;51.438;6.978;2022-11-22T04:35:35;98078.84;;;10.13;87.03
2339;BME280;1180;51.438;6.978;2022-11-22T04:38:00;98085.44;;;10.15;86.50
2339;BME280;1180;51.438;6.978;2022-11-22T04:40:25;98083.44;;;10.09;86.76
2339;BME280;1180;51.438;6.978;2022-11-22T04:42:51;98080.91;;;9.99;87.08
2339;BME280;1180;51.438;6.978;2022-11-22T04:45:35;98081.75;;;10.00;86.69
2339;BME280;1180;51.438;6.978;2022-11-22T04:48:00;98088.88;;;9.96;86.93
2339;BME280;1180;51.438;6.978;2022-11-22T04:50:30;98084.16;;;10.01;86.36
2339;BME280;1180;51.438;6.978;2022-11-22T04:53:15;98087.56;;;9.92;86.37
2339;BME280;1180;51.438;6.978;2022-11-22T04:55:42;98082.63;;;9.80;86.96
2339;BME280;1180;51.438;6.978;2022-11-22T04:58:08;98078.66;;;9.86;86.76
2339;BME280;1180;51.438;6.978;2022-11-22T05:00:34;98079.22;;;9.90;86.34
2339;BME280;1180;51.438;6.978;2022-11-22T05:02:59;98085.66;;;9.94;86.08
2339;BME280;1180;51.438;6.978;2022-11-22T05:05:25;98081.91;;;9.88;86.13
2339;BME280;1180;51.438;6.978;2022-11-22T05:07:51;98085.13;;;9.90;85.62
2339;BME280;1180;51.438;6.978;2022-11-22T05:10:16;98082.34;;;9.83;85.65
2339;BME280;1180;51.438;6.978;2022-11-22T05:12:42;98087.84;;;9.89;85.48
2339;BME280;1180;51.438;6.978;2022-11-22T05:15:09;98087.19;;;9.77;85.06
2339;BME280;1180;51.438;6.978;2022-11-22T05:17:35;98083.88;;;9.66;85.75
2339;BME280;1180;51.438;6.978;2022-11-22T05:20:00;98085.31;;;9.79;85.63
2339;BME280;1180;51.438;6.978;2022-11-22T05:22:26;98086.25;;;9.78;85.14
2339;BME280;1180;51.438;6.978;2022-11-22T05:25:10;98087.31;;;9.85;84.98
2339;BME280;1180;51.438;6.978;2022-11-22T05:27:36;98086.78;;;9.81;84.53
2339;BME280;1180;51.438;6.978;2022-11-22T05:30:02;98078.44;;;9.79;84.27
2339;BME280;1180;51.438;6.978;2022-11-22T05:32:29;98078.47;;;9.70;84.42
2339;BME280;1180;51.438;6.978;2022-11-22T05:34:54;98080.59;;;9.74;84.68
2339;BME280;1180;51.438;6.978;2022-11-22T05:37:20;98080.88;;;9.71;84.24
2339;BME280;1180;51.438;6.978;2022-11-22T05:39:46;98084.06;;;9.83;84.22
2339;BME280;1180;51.438;6.978;2022-11-22T05:42:17;98097.81;;;9.82;83.65
2339;BME280;1180;51.438;6.978;2022-11-22T05:44:42;98091.94;;;9.72;83.50
2339;BME280;1180;51.438;6.978;2022-11-22T05:47:08;98093.81;;;9.70;83.81
2339;BME280;1180;51.438;6.978;2022-11-22T05:49:34;98093.56;;;9.73;83.46
2339;BME280;1180;51.438;6.978;2022-11-22T05:51:59;98090.56;;;9.77;82.99
2339;BME280;1180;51.438;6.978;2022-11-22T05:54:25;98090.31;;;9.80;82.90
2339;BME280;1180;51.438;6.978;2022-11-22T05:56:50;98092.88;;;9.80;82.94
2339;BME280;1180;51.438;6.978;2022-11-22T05:59:15;98105.78;;;9.79;82.53
2339;BME280;1180;51.438;6.978;2022-11-22T06:01:41;98111.03;;;9.77;82.41
2339;BME280;1180;51.438;6.978;2022-11-22T06:04:06;98111.03;;;9.87;82.41
2339;BME280;1180;51.438;6.978;2022-11-22T06:06:32;98111.47;;;9.82;82.47
2339;BME280;1180;51.438;6.978;2022-11-22T06:08:58;98122.78;;;9.80;82.01
2339;BME280;1180;51.438;6.978;2022-11-22T06:11:25;98124.56;;;9.70;82.43
2339;BME280;1180;51.438;6.978;2022-11-22T06:13:53;98125.63;;;9.77;82.41
2339;BME280;1180;51.438;6.978;2022-11-22T06:16:19;98131.03;;;9.74;82.41
2339;BME280;1180;51.438;6.978;2022-11-22T06:18:45;98126.97;;;9.71;81.54
2339;BME280;1180;51.438;6.978;2022-11-22T06:21:24;98134.81;;;9.70;81.78
2339;BME280;1180;51.438;6.978;2022-11-22T06:23:50;98132.09;;;9.71;81.98
2339;BME280;1180;51.438;6.978;2022-11-22T06:26:18;98130.47;;;9.80;81.91
2339;BME280;1180;51.438;6.978;2022-11-22T06:28:45;98136.91;;;9.84;81.29
2339;BME280;1180;51.438;6.978;2022-11-22T06:31:19;98131.00;;;9.83;80.96
2339;BME280;1180;51.438;6.978;2022-11-22T06:33:46;98131.69;;;9.76;80.75
2339;BME280;1180;51.438;6.978;2022-11-22T06:36:16;98139.38;;;9.76;81.09
2339;BME280;1180;51.438;6.978;2022-11-22T06:38:43;98129.13;;;9.76;81.06
2339;BME280;1180;51.438;6.978;2022-11-22T06:41:14;98121.56;;;9.74;81.33
2339;BME280;1180;51.438;6.978;2022-11-22T06:43:40;98123.75;;;9.69;81.46
2339;BME280;1180;51.438;6.978;2022-11-22T06:46:06;98134.41;;;9.64;81.56
2339;BME280;1180;51.438;6.978;2022-11-22T06:48:34;98127.41;;;9.66;81.53
2339;BME280;1180;51.438;6.978;2022-11-22T06:51:01;98131.19;;;9.62;81.16
2339;BME280;1180;51.438;6.978;2022-11-22T06:53:30;98135.47;;;9.62;82.10
2339;BME280;1180;51.438;6.978;2022-11-22T06:56:13;98132.38;;;9.58;82.16
2339;BME280;1180;51.438;6.978;2022-11-22T06:58:40;98138.44;;;9.67;81.56
2339;BME280;1180;51.438;6.978;2022-11-22T07:01:17;98138.88;;;9.62;81.56
2339;BME280;1180;51.438;6.978;2022-11-22T07:03:43;98140.47;;;9.63;81.49
2339;BME280;1180;51.438;6.978;2022-11-22T07:06:10;98146.94;;;9.67;81.61
2339;BME280;1180;51.438;6.978;2022-11-22T07:08:36;98151.38;;;9.65;81.40
2339;BME280;1180;51.438;6.978;2022-11-22T07:11:09;98156.50;;;9.65;80.76
2339;BME280;1180;51.438;6.978;2022-11-22T07:13:35;98164.19;;;9.65;80.94
2339;BME280;1180;51.438;6.978;2022-11-22T07:16:02;98164.47;;;9.62;80.81
2339;BME280;1180;51.438;6.978;2022-11-22T07:18:29;98161.75;;;9.54;80.71
2339;BME280;1180;51.438;6.978;2022-11-22T07:21:09;98171.75;;;9.47;81.07
2339;BME280;1180;51.438;6.978;2022-11-22T07:23:35;98171.22;;;9.53;81.07
2339;BME280;1180;51.438;6.978;2022-11-22T07:26:01;98176.72;;;9.49;80.92
2339;BME280;1180;51.438;6.978;2022-11-22T07:28:27;98173.09;;;9.51;80.75
2339;BME280;1180;51.438;6.978;2022-11-22T07:30:52;98166.38;;;9.50;80.73
2339;BME280;1180;51.438;6.978;2022-11-22T07:33:22;98165.28;;;9.53;80.15
2339;BME280;1180;51.438;6.978;2022-11-22T07:35:47;98166.75;;;9.56;79.73
2339;BME280;1180;51.438;6.978;2022-11-22T07:38:13;98161.53;;;9.47;79.68
2339;BME280;1180;51.438;6.978;2022-11-22T07:40:38;98170.38;;;9.53;80.01
2339;BME280;1180;51.438;6.978;2022-11-22T07:43:03;98167.44;;;9.58;79.47
2339;BME280;1180;51.438;6.978;2022-11-22T07:45:29;98178.34;;;9.50;78.61
2339;BME280;1180;51.438;6.978;2022-11-22T07:47:54;98171.88;;;9.56;78.64
2339;BME280;1180;51.438;6.978;2022-11-22T07:50:19;98171.72;;;9.57;78.40
2339;BME280;1180;51.438;6.978;2022-11-22T07:52:45;98171.06;;;9.55;78.16
2339;BME280;1180;51.438;6.978;2022-11-22T07:55:10;98182.41;;;9.43;78.36
2339;BME280;1180;51.438;6.978;2022-11-22T07:57:36;98183.63;;;9.48;78.25
2339;BME280;1180;51.438;6.978;2022-11-22T08:00:02;98173.22;;;9.60;77.92
2339;BME280;1180;51.438;6.978;2022-11-22T08:02:28;98182.78;;;9.48;77.96
2339;BME280;1180;51.438;6.978;2022-11-22T08:04:53;98187.91;;;9.48;78.57
2339;BME280;1180;51.438;6.978;2022-11-22T08:07:19;98178.22;;;9.51;78.51
2339;BME280;1180;51.438;6.978;2022-11-22T08:09:44;98182.78;;;9.48;78.11
2339;BME280;1180;51.438;6.978;2022-11-22T08:12:10;98173.88;;;9.52;78.63
2339;BME280;1180;51.438;6.978;2022-11-22T08:14:35;98172.56;;;9.58;77.50
2339;BME280;1180;51.438;6.978;2022-11-22T08:17:00;98170.13;;;9.56;78.12
2339;BME280;1180;51.438;6.978;2022-11-22T08:19:26;98179.84;;;9.52;77.74
2339;BME280;1180;51.438;6.978;2022-11-22T08:21:52;98172.81;;;9.54;77.86
2339;BME280;1180;51.438;6.978;2022-11-22T08:24:17;98186.69;;;9.62;77.47
2339;BME280;1180;51.438;6.978;2022-11-22T08:26:43;98183.47;;;9.60;76.89
2339;BME280;1180;51.438;6.978;2022-11-22T08:29:11;98186.81;;;9.70;77.14
2339;BME280;1180;51.438;6.978;2022-11-22T08:31:37;98182.63;;;9.79;76.70
2339;BME280;1180;51.438;6.978;2022-11-22T08:34:03;98203.00;;;9.80;76.78
2339;BME280;1180;51.438;6.978;2022-11-22T08:36:29;98194.22;;;9.83;76.27
2339;BME280;1180;51.438;6.978;2022-11-22T08:38:54;98187.75;;;9.79;79.66
2339;BME280;1180;51.438;6.978;2022-11-22T08:41:20;98196.09;;;9.91;76.60
2339;BME280;1180;51.438;6.978;2022-11-22T08:43:49;98198.66;;;9.81;76.39
2339;BME280;1180;51.438;6.978;2022-11-22T08:46:14;98198.53;;;9.82;76.63
2339;BME280;1180;51.438;6.978;2022-11-22T08:48:40;98192.47;;;9.74;76.86
2339;BME280;1180;51.438;6.978;2022-11-22T08:51:09;98198.66;;;9.81;76.61
2339;BME280;1180;51.438;6.978;2022-11-22T08:53:36;98194.88;;;9.85;75.57
2339;BME280;1180;51.438;6.978;2022-11-22T08:56:03;98190.97;;;9.81;75.73
2339;BME280;1180;51.438;6.978;2022-11-22T08:58:30;98202.44;;;9.87;76.02
2339;BME280;1180;51.438;6.978;2022-11-22T09:00:56;98201.34;;;9.89;75.61
2339;BME280;1180;51.438;6.978;2022-11-22T09:03:27;98202.28;;;10.08;75.61
2339;BME280;1180;51.438;6.978;2022-11-22T09:05:52;98208.75;;;10.02;75.33
2339;BME280;1180;51.438;6.978;2022-11-22T09:08:18;98213.84;;;10.12;75.34
2339;BME280;1180;51.438;6.978;2022-11-22T09:10:43;98209.00;;;10.09;75.15
2339;BME280;1180;51.438;6.978;2022-11-22T09:13:08;98209.78;;;10.19;75.03
2339;BME280;1180;51.438;6.978;2022-11-22T09:15:33;98203.59;;;10.22;75.39
2339;BME280;1180;51.438;6.978;2022-11-22T09:18:02;98209.63;;;10.31;75.23
2339;BME280;1180;51.438;6.978;2022-11-22T09:20:28;98209.09;;;10.27;74.94
2339;BME280;1180;51.438;6.978;2022-11-22T09:22:53;98226.09;;;10.28;75.15
2339;BME280;1180;51.438;6.978;2022-11-22T09:25:19;98223.25;;;10.31;74.41
2339;BME280;1180;51.438;6.978;2022-11-22T09:27:44;98219.31;;;10.37;73.91
2339;BME280;1180;51.438;6.978;2022-11-22T09:30:10;98225.25;;;10.37;74.18
2339;BME280;1180;51.438;6.978;2022-11-22T09:32:35;98221.22;;;10.35;73.50
2339;BME280;1180;51.438;6.978;2022-11-22T09:35:01;98232.00;;;10.48;73.77
2339;BME280;1180;51.438;6.978;2022-11-22T09:37:26;98232.56;;;10.42;73.04
2339;BME280;1180;51.438;6.978;2022-11-22T09:39:51;98241.03;;;10.43;72.94
2339;BME280;1180;51.438;6.978;2022-11-22T09:42:32;98230.75;;;10.52;73.50
2339;BME280;1180;51.438;6.978;2022-11-22T09:45:15;98226.97;;;10.57;72.67
2339;BME280;1180;51.438;6.978;2022-11-22T09:55:41;98231.00;;;10.59;72.19
2339;BME280;1180;51.438;6.978;2022-11-22T10:00:42;98232.97;;;10.75;72.62
2339;BME280;1180;51.438;6.978;2022-11-22T10:03:22;98242.47;;;10.65;72.73
2339;BME280;1180;51.438;6.978;2022-11-22T10:05:54;98235.31;;;10.59;72.02
2339;BME280;1180;51.438;6.978;2022-11-22T10:17:37;98234.78;;;10.65;72.26
2339;BME280;1180;51.438;6.978;2022-11-22T10:20:18;98242.91;;;10.88;72.48
2339;BME280;1180;51.438;6.978;2022-11-22T10:22:44;98237.91;;;10.87;72.05
2339;BME280;1180;51.438;6.978;2022-11-22T10:25:18;98234.06;;;11.01;72.10
2339;BME280;1180;51.438;6.978;2022-11-22T10:27:52;98228.75;;;11.12;70.79
2339;BME280;1180;51.438;6.978;2022-11-22T10:30:19;98215.63;;;11.15;70.48
2339;BME280;1180;51.438;6.978;2022-11-22T10:41:23;98212.16;;;11.06;70.34
2339;BME280;1180;51.438;6.978;2022-11-22T10:43:58;98208.25;;;11.02;70.48
2339;BME280;1180;51.438;6.978;2022-11-22T10:57:52;98181.03;;;10.91;70.79
2339;BME280;1180;51.438;6.978;2022-11-22T11:00:25;98186.97;;;10.92;70.82
2339;BME280;1180;51.438;6.978;2022-11-22T11:03:26;98177.53;;;10.92;70.49
2339;BME280;1180;51.438;6.978;2022-11-22T11:08:33;98173.44;;;11.18;70.21
2339;BME280;1180;51.438;6.978;2022-11-22T11:11:00;98170.66;;;11.11;69.29
2339;BME280;1180;51.438;6.978;2022-11-22T11:13:40;98163.31;;;11.16;69.17
2339;BME280;1180;51.438;6.978;2022-11-22T11:16:09;98154.16;;;11.13;69.72
2339;BME280;1180;51.438;6.978;2022-11-22T11:19:06;98152.41;;;11.14;69.73
2339;BME280;1180;51.438;6.978;2022-11-22T11:21:36;98154.22;;;11.04;69.92
2339;BME280;1180;51.438;6.978;2022-11-22T11:24:02;98154.50;;;11.01;70.56
2339;BME280;1180;51.438;6.978;2022-11-22T11:26:29;98149.59;;;11.07;70.30
2339;BME280;1180;51.438;6.978;2022-11-22T11:31:47;98150.13;;;11.11;70.65
2339;BME280;1180;51.438;6.978;2022-11-22T11:34:23;98142.50;;;11.19;69.87
2339;BME280;1180;51.438;6.978;2022-11-22T11:36:50;98142.50;;;11.19;69.64
2339;BME280;1180;51.438;6.978;2022-11-22T11:39:23;98148.41;;;11.20;69.25
2339;BME280;1180;51.438;6.978;2022-11-22T11:41:51;98143.06;;;11.31;69.05
2339;BME280;1180;51.438;6.978;2022-11-22T11:44:27;98138.00;;;11.21;68.85
2339;BME280;1180;51.438;6.978;2022-11-22T11:46:53;98134.34;;;11.24;69.44
2339;BME280;1180;51.438;6.978;2022-11-22T11:49:24;98138.91;;;11.30;69.41
2339;BME280;1180;51.438;6.978;2022-11-22T11:51:56;98147.31;;;11.40;68.68
2339;BME280;1180;51.438;6.978;2022-11-22T11:54:38;98135.28;;;11.41;69.24
2339;BME280;1180;51.438;6.978;2022-11-22T11:57:30;98127.53;;;11.59;67.89
2339;BME280;1180;51.438;6.978;2022-11-22T11:59:56;98136.81;;;11.52;68.55
2339;BME280;1180;51.438;6.978;2022-11-22T12:02:34;98140.66;;;11.30;69.38
2339;BME280;1180;51.438;6.978;2022-11-22T12:07:45;98135.69;;;11.28;69.53
2339;BME280;1180;51.438;6.978;2022-11-22T12:13:29;98126.19;;;11.47;69.14
2339;BME280;1180;51.438;6.978;2022-11-22T12:18:56;98136.31;;;11.75;68.83
2339;BME280;1180;51.438;6.978;2022-11-22T12:21:46;98137.94;;;11.76;68.91
2339;BME280;1180;51.438;6.978;2022-11-22T12:24:24;98137.28;;;11.74;68.59
2339;BME280;1180;51.438;6.978;2022-11-22T12:26:53;98135.81;;;11.71;68.21
2339;BME280;1180;51.438;6.978;2022-11-22T12:29:19;98138.84;;;11.66;67.52
2339;BME280;1180;51.438;6.978;2022-11-22T12:31:49;98127.97;;;11.73;68.10
2339;BME280;1180;51.438;6.978;2022-11-22T12:34:27;98119.81;;;11.77;68.09
2339;BME280;1180;51.438;6.978;2022-11-22T12:37:11;98125.47;;;11.89;67.91
2339;BME280;1180;51.438;6.978;2022-11-22T12:39:40;98129.63;;;11.82;68.21
2339;BME280;1180;51.438;6.978;2022-11-22T12:42:20;98126.44;;;11.88;67.86
2339;BME280;1180;51.438;6.978;2022-11-22T12:45:29;98137.16;;;12.02;67.50
2339;BME280;1180;51.438;6.978;2022-11-22T12:47:59;98130.78;;;12.14;67.40
2339;BME280;1180;51.438;6.978;2022-11-22T12:53:02;98134.16;;;11.88;68.02
2339;BME280;1180;51.438;6.978;2022-11-22T12:55:39;98134.31;;;11.87;66.33
2339;BME280;1180;51.438;6.978;2022-11-22T13:00:40;98138.19;;;11.91;67.70
2339;BME280;1180;51.438;6.978;2022-11-22T13:03:14;98137.88;;;11.94;67.08
2339;BME280;1180;51.438;6.978;2022-11-22T13:05:54;98140.25;;;11.87;67.89
2339;BME280;1180;51.438;6.978;2022-11-22T13:08:57;98144.88;;;12.02;67.00
2339;BME280;1180;51.438;6.978;2022-11-22T13:11:36;98147.13;;;12.05;66.68
2339;BME280;1180;51.438;6.978;2022-11-22T13:14:10;98142.88;;;11.95;67.33
2339;BME280;1180;51.438;6.978;2022-11-22T13:16:36;98142.28;;;12.02;66.51
2339;BME280;1180;51.438;6.978;2022-11-22T13:19:06;98143.16;;;12.10;66.62
2339;BME280;1180;51.438;6.978;2022-11-22T13:21:58;98146.06;;;12.16;67.16
2339;BME280;1180;51.438;6.978;2022-11-22T13:27:41;98153.88;;;11.79;67.46
2339;BME280;1180;51.438;6.978;2022-11-22T13:30:20;98149.63;;;11.96;67.90
2339;BME280;1180;51.438;6.978;2022-11-22T13:32:49;98141.47;;;12.01;67.32
2339;BME280;1180;51.438;6.978;2022-11-22T13:37:53;98150.34;;;12.07;67.26
2339;BME280;1180;51.438;6.978;2022-11-22T13:40:26;98153.22;;;12.04;67.05
2339;BME280;1180;51.438;6.978;2022-11-22T13:51:08;98140.25;;;11.87;67.80
2339;BME280;1180;51.438;6.978;2022-11-22T13:53:37;98145.28;;;11.97;67.18
2339;BME280;1180;51.438;6.978;2022-11-22T14:17:50;98150.53;;;11.87;67.28
2339;BME280;1180;51.438;6.978;2022-11-22T14:25:40;98151.03;;;11.91;69.01
2339;BME280;1180;51.438;6.978;2022-11-22T14:31:32;98140.38;;;12.04;68.18
2339;BME280;1180;51.438;6.978;2022-11-22T14:34:17;98141.09;;;11.96;68.55
2339;BME280;1180;51.438;6.978;2022-11-22T14:36:44;98133.19;;;11.89;68.71
2339;BME280;1180;51.438;6.978;2022-11-22T14:47:59;98137.19;;;11.83;68.63
2339;BME280;1180;51.438;6.978;2022-11-22T14:50:41;98141.47;;;11.75;69.20
2339;BME280;1180;51.438;6.978;2022-11-22T14:53:32;98143.22;;;11.74;69.67
2339;BME280;1180;51.438;6.978;2022-11-22T14:56:05;98145.00;;;11.74;69.62
2339;BME280;1180;51.438;6.978;2022-11-22T14:58:36;98146.81;;;11.81;69.36
2339;BME280;1180;51.438;6.978;2022-11-22T15:05:02;98154.53;;;11.81;70.34
2339;BME280;1180;51.438;6.978;2022-11-22T15:15:10;98147.13;;;11.78;70.00
2339;BME280;1180;51.438;6.978;2022-11-22T15:17:43;98143.72;;;11.78;69.81
2339;BME280;1180;51.438;6.978;2022-11-22T15:20:33;98146.66;;;11.83;70.09
2339;BME280;1180;51.438;6.978;2022-11-22T15:23:12;98136.03;;;11.78;70.06
2339;BME280;1180;51.438;6.978;2022-11-22T15:25:38;98140.94;;;11.71;70.33
2339;BME280;1180;51.438;6.978;2022-11-22T15:28:04;98143.38;;;11.73;71.05
2339;BME280;1180;51.438;6.978;2022-11-22T15:30:30;98140.84;;;11.81;69.85
2339;BME280;1180;51.438;6.978;2022-11-22T15:32:55;98144.38;;;11.80;70.61
2339;BME280;1180;51.438;6.978;2022-11-22T15:35:49;98147.38;;;11.75;70.35
2339;BME280;1180;51.438;6.978;2022-11-22T15:38:18;98146.38;;;11.68;71.25
2339;BME280;1180;51.438;6.978;2022-11-22T15:40:45;98150.91;;;11.74;70.68
2339;BME280;1180;51.438;6.978;2022-11-22T15:43:19;98157.00;;;11.73;71.13
2339;BME280;1180;51.438;6.978;2022-11-22T15:45:46;98148.81;;;11.69;70.99
2339;BME280;1180;51.438;6.978;2022-11-22T15:48:17;98159.44;;;11.75;70.80